Ashland, Texas
Current Conditions -  °F | °C
As of 10:53 AM on Saturday 25 Oct 2014 (Local Time) from KGGG Reporting Station
Clear Clear  
Wind Chill: 76°   Ceiling: Unl
Heat Index: 76°   Visibility: 10mi
Dew Point: 60°   Wind: 5mph
Humidity: 58%   Direction: 230°SW
Pressure: 30.17"   Gusts: NA
Location:  32.6998°N, 94.6696°W
Report Text: KGGG 251553Z 23004KT 10SM CLR 24/16 A3017 RMK AO2 SLP212 T02440156
Loading
Personal Weather Stations






























Interactive Weather Map
Tropical Storm Tracking
New forecast layout! Learn more

10-Day Weather Forecast

Advertisements
Track Severe Weather on mobile